Time;durP1;ratioP1;P1;durP2;ratioP2;P2;SDS_P1;SDS_P2;PMS_P1;PMS_P2;Temp;Humidity;BMP_temperature;BMP_pressure;BME280_temperature;BME280_humidity;BME280_pressure;Samples;Min_cycle;Max_cycle;Signal;HPM_P1;HPM_P2
2023/08/13 00:00:49;;;;;;;7.72;2.22;;;21.40;96.20;;;;;;5055963;28;20378;-76
2023/08/13 00:03:14;;;;;;;9.65;2.38;;;21.40;96.50;;;;;;5056552;28;20104;-70
2023/08/13 00:05:40;;;;;;;7.85;2.17;;;21.40;96.30;;;;;;5056645;28;20029;-74
2023/08/13 00:08:06;;;;;;;9.57;2.53;;;21.40;96.20;;;;;;5056177;28;20025;-70
2023/08/13 00:10:31;;;;;;;8.05;2.15;;;21.40;96.30;;;;;;5056036;28;20033;-69
2023/08/13 00:12:57;;;;;;;8.77;1.67;;;21.30;96.40;;;;;;5056359;28;20032;-70
2023/08/13 00:15:22;;;;;;;13.43;2.78;;;21.30;96.40;;;;;;5056391;28;20025;-69
2023/08/13 00:17:48;;;;;;;8.88;2.17;;;21.30;96.40;;;;;;5055677;28;20059;-71
2023/08/13 00:20:13;;;;;;;9.27;2.03;;;21.30;96.50;;;;;;5056474;28;20489;-69
2023/08/13 00:22:39;;;;;;;9.93;2.47;;;21.30;96.50;;;;;;5055843;28;20029;-69
2023/08/13 00:25:05;;;;;;;8.93;2.53;;;21.30;96.50;;;;;;5056272;28;20501;-69
2023/08/13 00:27:31;;;;;;;8.05;2.03;;;21.20;96.60;;;;;;5055432;28;20032;-73
2023/08/13 00:29:56;;;;;;;8.95;1.90;;;21.20;96.60;;;;;;5056160;28;20524;-69
2023/08/13 00:32:22;;;;;;;10.52;2.25;;;21.20;96.70;;;;;;5056099;28;20032;-69
2023/08/13 00:34:48;;;;;;;8.13;2.50;;;21.20;96.80;;;;;;5055546;28;20426;-70
2023/08/13 00:37:13;;;;;;;6.88;1.88;;;21.20;96.80;;;;;;5055078;28;20025;-69
2023/08/13 00:39:39;;;;;;;8.45;1.90;;;21.10;96.80;;;;;;5055616;28;20065;-69
2023/08/13 00:42:04;;;;;;;8.35;2.50;;;21.10;96.90;;;;;;5056050;28;20025;-68
2023/08/13 00:44:30;;;;;;;9.55;2.20;;;21.10;97.00;;;;;;5056021;28;20112;-71
2023/08/13 00:46:56;;;;;;;7.90;2.40;;;21.10;97.00;;;;;;5056073;28;20017;-69
2023/08/13 00:49:23;;;;;;;7.15;2.05;;;21.10;97.00;;;;;;5054771;28;20055;-73
2023/08/13 00:51:49;;;;;;;8.55;2.28;;;21.00;97.10;;;;;;5054317;28;20090;-69
2023/08/13 00:54:15;;;;;;;8.05;2.22;;;21.00;97.10;;;;;;5055382;28;20474;-69
2023/08/13 00:56:41;;;;;;;8.07;2.25;;;21.00;97.10;;;;;;5055719;28;20122;-72
2023/08/13 00:59:08;;;;;;;8.32;1.95;;;21.00;97.20;;;;;;5054726;28;20041;-69
2023/08/13 01:01:33;;;;;;;9.52;2.63;;;21.00;97.30;;;;;;5055759;28;20017;-69
2023/08/13 01:03:59;;;;;;;10.73;2.47;;;21.00;97.30;;;;;;5054850;28;20033;-69
2023/08/13 01:06:46;;;;;;;12.73;2.92;;;21.00;97.40;;;;;;5055282;28;20096;-69
2023/08/13 01:09:38;;;;;;;8.93;2.22;;;20.90;97.40;;;;;;5053458;28;20124;-74
2023/08/13 01:12:16;;;;;;;11.00;2.30;;;20.90;97.50;;;;;;5044158;28;20107;-69
2023/08/13 01:15:00;;;;;;;7.47;2.20;;;20.90;97.60;;;;;;5055206;28;20078;-69
2023/08/13 01:17:27;;;;;;;5.65;1.90;;;20.80;97.70;;;;;;5055432;28;20017;-69
2023/08/13 01:19:53;;;;;;;10.88;2.22;;;20.80;97.70;;;;;;5054256;28;20033;-74
2023/08/13 01:22:27;;;;;;;7.07;2.38;;;20.80;97.80;;;;;;5055482;28;20431;-69
2023/08/13 01:24:53;;;;;;;10.48;1.90;;;20.80;97.80;;;;;;5055005;28;20029;-69
2023/08/13 01:28:02;;;;;;;8.48;2.47;;;20.80;97.90;;;;;;5055096;28;20519;-69
2023/08/13 01:30:52;;;;;;;8.55;2.17;;;20.80;97.90;;;;;;4973598;28;20498;-70
2023/08/13 01:33:27;;;;;;;10.13;2.17;;;20.80;98.00;;;;;;5051727;28;20045;-69
2023/08/13 01:36:02;;;;;;;10.38;2.10;;;20.80;98.10;;;;;;5050348;28;20028;-69
2023/08/13 01:38:30;;;;;;;7.53;2.17;;;20.70;98.10;;;;;;5054112;28;20494;-69
2023/08/13 01:41:04;;;;;;;6.05;1.90;;;20.70;98.20;;;;;;5054936;28;20021;-69
2023/08/13 01:43:30;;;;;;;6.85;2.22;;;20.70;98.20;;;;;;5055006;28;20032;-69
2023/08/13 01:45:58;;;;;;;7.03;2.17;;;20.70;98.20;;;;;;5053938;28;20429;-68
2023/08/13 01:48:23;;;;;;;10.05;2.33;;;20.60;98.30;;;;;;5053766;28;20036;-69
2023/08/13 01:50:49;;;;;;;8.77;2.42;;;20.60;98.30;;;;;;5054797;28;20370;-69
2023/08/13 01:53:15;;;;;;;9.05;2.05;;;20.60;98.40;;;;;;5054639;28;20091;-69
2023/08/13 01:55:40;;;;;;;9.45;2.15;;;20.60;98.40;;;;;;5053585;28;20021;-72
2023/08/13 01:58:07;;;;;;;7.75;2.13;;;20.60;98.40;;;;;;5054403;28;20029;-69
2023/08/13 02:00:33;;;;;;;8.38;2.75;;;20.60;98.50;;;;;;5054570;28;20112;-69
2023/08/13 02:02:59;;;;;;;9.77;2.10;;;20.60;98.60;;;;;;5053561;28;20063;-75
2023/08/13 02:05:24;;;;;;;7.68;2.10;;;20.60;98.60;;;;;;5053761;28;20474;-69
2023/08/13 02:07:50;;;;;;;8.68;2.40;;;20.60;98.60;;;;;;5054451;28;20032;-69
2023/08/13 02:10:15;;;;;;;10.88;2.53;;;20.50;98.60;;;;;;5054278;28;20081;-69
2023/08/13 02:12:41;;;;;;;9.52;2.17;;;20.50;98.70;;;;;;5054442;28;20028;-69
2023/08/13 02:15:07;;;;;;;7.72;2.15;;;20.50;98.70;;;;;;5054066;28;20029;-69
2023/08/13 02:17:32;;;;;;;7.32;2.20;;;20.50;98.80;;;;;;5053190;28;20040;-69
2023/08/13 02:19:58;;;;;;;5.95;1.55;;;20.50;98.80;;;;;;5052024;28;20044;-69
2023/08/13 02:22:24;;;;;;;8.10;2.35;;;20.50;98.90;;;;;;5054182;28;20028;-69
2023/08/13 02:24:49;;;;;;;7.18;1.92;;;20.50;98.90;;;;;;5054087;28;20032;-69
2023/08/13 02:27:15;;;;;;;6.63;2.22;;;20.40;99.00;;;;;;5053571;28;20014;-69
2023/08/13 02:29:40;;;;;;;6.72;2.08;;;20.40;99.00;;;;;;5051826;28;20033;-69
2023/08/13 02:32:06;;;;;;;8.32;2.30;;;20.40;99.00;;;;;;5051827;28;20294;-69
2023/08/13 02:34:35;;;;;;;10.43;2.60;;;20.40;99.10;;;;;;5053665;28;20219;-69
2023/08/13 02:37:01;;;;;;;9.65;2.40;;;20.40;99.10;;;;;;5053668;28;20017;-69
2023/08/13 02:39:27;;;;;;;8.55;2.08;;;20.40;99.20;;;;;;5053174;28;20091;-68
2023/08/13 02:41:52;;;;;;;7.47;2.13;;;20.40;99.20;;;;;;5053749;28;20025;-68
2023/08/13 02:44:18;;;;;;;8.23;2.42;;;20.40;99.20;;;;;;5052310;28;20032;-69
2023/08/13 02:46:46;;;;;;;8.73;2.30;;;20.40;99.30;;;;;;5052732;28;20452;-69
2023/08/13 02:49:12;;;;;;;7.78;2.03;;;20.40;99.30;;;;;;5053528;28;20522;-69
2023/08/13 02:51:38;;;;;;;8.45;2.50;;;20.40;99.30;;;;;;5053411;28;20108;-69
2023/08/13 02:54:03;;;;;;;7.15;2.60;;;20.40;99.40;;;;;;5053479;28;20025;-68
2023/08/13 02:56:29;;;;;;;9.82;2.45;;;20.30;99.40;;;;;;5051444;28;20053;-69
2023/08/13 02:58:54;;;;;;;9.65;2.10;;;20.30;99.40;;;;;;5035668;28;20064;-70
2023/08/13 03:01:21;;;;;;;10.82;2.90;;;20.30;99.50;;;;;;5042711;28;20107;-68
2023/08/13 03:03:49;;;;;;;8.25;2.13;;;20.30;99.50;;;;;;5053458;28;20390;-73
2023/08/13 03:06:14;;;;;;;8.73;2.10;;;20.30;99.50;;;;;;5052806;28;20025;-70
2023/08/13 03:08:40;;;;;;;9.13;2.10;;;20.30;99.50;;;;;;5053325;28;20525;-69
2023/08/13 03:11:06;;;;;;;10.60;2.50;;;20.30;99.60;;;;;;5053134;28;20024;-70
2023/08/13 03:13:31;;;;;;;8.18;1.95;;;20.30;99.60;;;;;;5052723;28;20363;-69
2023/08/13 03:15:57;;;;;;;8.38;1.90;;;20.30;99.60;;;;;;5050702;28;20033;-69
2023/08/13 03:18:22;;;;;;;9.52;2.85;;;20.30;99.60;;;;;;5052334;28;20100;-68
2023/08/13 03:20:48;;;;;;;10.73;2.53;;;20.30;99.70;;;;;;5051716;28;20033;-69
2023/08/13 03:23:14;;;;;;;9.40;2.80;;;20.30;99.70;;;;;;5052921;28;20021;-69
2023/08/13 03:25:39;;;;;;;11.07;2.97;;;20.20;99.70;;;;;;5053060;28;20021;-69
2023/08/13 03:28:05;;;;;;;7.93;2.38;;;20.20;99.80;;;;;;5052709;28;20032;-69
2023/08/13 03:30:30;;;;;;;7.35;2.58;;;20.20;99.90;;;;;;5053059;28;20072;-72
2023/08/13 03:32:56;;;;;;;10.88;2.75;;;20.20;99.90;;;;;;5052872;28;20029;-69
2023/08/13 03:35:21;;;;;;;10.73;2.72;;;20.20;99.90;;;;;;5050854;28;20021;-69
2023/08/13 03:37:47;;;;;;;8.93;2.63;;;20.30;99.90;;;;;;5049137;28;20500;-69
2023/08/13 03:40:13;;;;;;;8.48;2.95;;;20.20;99.90;;;;;;5051073;28;20029;-69
2023/08/13 03:42:38;;;;;;;7.53;2.97;;;20.20;99.90;;;;;;5052733;28;20021;-69
2023/08/13 03:45:05;;;;;;;9.13;2.92;;;20.20;99.90;;;;;;5050712;28;20068;-69
2023/08/13 03:47:30;;;;;;;9.45;2.45;;;20.20;99.90;;;;;;5050278;28;20109;-69
2023/08/13 03:49:56;;;;;;;10.45;2.40;;;20.20;99.90;;;;;;5052704;28;20112;-69
2023/08/13 03:52:21;;;;;;;7.20;2.47;;;20.20;99.90;;;;;;5051732;28;20033;-69
2023/08/13 03:54:47;;;;;;;9.93;2.60;;;20.20;99.90;;;;;;5050691;28;20087;-68
2023/08/13 03:57:12;;;;;;;6.00;2.22;;;20.20;99.90;;;;;;5052733;28;20035;-68
2023/08/13 03:59:38;;;;;;;8.63;2.22;;;20.20;99.90;;;;;;5056857;28;20041;-73
2023/08/13 04:02:04;;;;;;;8.77;2.70;;;20.20;99.90;;;;;;5050903;28;20032;-69
2023/08/13 04:04:29;;;;;;;9.27;2.40;;;20.20;99.90;;;;;;5051066;28;20027;-69
2023/08/13 04:06:55;;;;;;;10.95;2.55;;;20.10;99.90;;;;;;5052286;28;20024;-67
2023/08/13 04:09:20;;;;;;;8.45;2.20;;;20.20;99.90;;;;;;5050793;28;20518;-69
2023/08/13 04:11:46;;;;;;;7.22;2.30;;;20.20;99.90;;;;;;5053442;28;20025;-68
2023/08/13 04:14:11;;;;;;;8.60;2.33;;;20.20;99.90;;;;;;5052135;28;20664;-70
2023/08/13 04:16:37;;;;;;;6.95;1.92;;;20.30;99.90;;;;;;5052353;28;20030;-72
2023/08/13 04:19:03;;;;;;;9.20;2.38;;;20.20;99.90;;;;;;5050658;28;20383;-70
2023/08/13 04:21:28;;;;;;;9.40;2.60;;;20.30;99.90;;;;;;5050912;28;20474;-70
2023/08/13 04:23:55;;;;;;;11.40;2.75;;;20.20;99.90;;;;;;5052469;28;20025;-69
2023/08/13 04:26:22;;;;;;;7.15;2.47;;;20.20;99.90;;;;;;5053220;28;20071;-74
2023/08/13 04:28:48;;;;;;;9.23;2.55;;;20.20;99.90;;;;;;5055953;28;20029;-70
2023/08/13 04:31:15;;;;;;;7.80;2.38;;;20.20;99.90;;;;;;5056222;28;20013;-71
2023/08/13 04:33:41;;;;;;;11.52;3.03;;;20.20;99.90;;;;;;5054766;28;20049;-71
2023/08/13 04:36:06;;;;;;;7.55;2.58;;;20.20;99.90;;;;;;5056319;28;20056;-70
2023/08/13 04:38:32;;;;;;;8.23;2.00;;;20.20;99.90;;;;;;5055876;28;20033;-71
2023/08/13 04:40:57;;;;;;;10.25;2.50;;;20.20;99.90;;;;;;5056031;28;20025;-69
2023/08/13 04:43:23;;;;;;;8.77;2.53;;;20.20;99.90;;;;;;5055503;28;20378;-71
2023/08/13 04:45:49;;;;;;;15.23;2.97;;;20.20;99.90;;;;;;5056068;28;20513;-70
2023/08/13 04:48:38;;;;;;;12.23;2.88;;;20.20;99.90;;;;;;5055759;28;20116;-72
2023/08/13 04:51:04;;;;;;;10.38;2.67;;;20.20;99.90;;;;;;5055721;28;20041;-69
2023/08/13 04:53:29;;;;;;;10.63;2.58;;;20.20;99.90;;;;;;5055558;28;20070;-72
2023/08/13 04:55:55;;;;;;;12.30;2.80;;;20.10;99.90;;;;;;5055912;28;20037;-70
2023/08/13 04:58:20;;;;;;;8.80;2.47;;;20.10;99.90;;;;;;5055528;28;20044;-72
2023/08/13 05:00:46;;;;;;;7.63;2.33;;;20.10;99.90;;;;;;5055703;28;20071;-72
2023/08/13 05:03:12;;;;;;;7.25;2.42;;;20.20;99.90;;;;;;5055197;28;20032;-70
2023/08/13 05:05:37;;;;;;;10.85;3.03;;;20.10;99.90;;;;;;5054149;28;20025;-70
2023/08/13 05:08:03;;;;;;;8.50;2.90;;;20.10;99.90;;;;;;5055148;28;20029;-70
2023/08/13 05:10:29;;;;;;;10.30;3.03;;;20.10;99.90;;;;;;5055346;28;20496;-69
2023/08/13 05:12:54;;;;;;;9.32;2.80;;;20.10;99.90;;;;;;5055239;28;20071;-70
2023/08/13 05:15:20;;;;;;;9.30;2.22;;;20.10;99.90;;;;;;5055241;28;20079;-70
2023/08/13 05:17:45;;;;;;;11.18;3.28;;;20.10;99.90;;;;;;5055313;28;20521;-71
2023/08/13 05:20:11;;;;;;;8.23;2.47;;;20.10;99.90;;;;;;5055220;28;20032;-70
2023/08/13 05:22:36;;;;;;;8.38;2.40;;;20.10;99.90;;;;;;5055247;28;20100;-70
2023/08/13 05:25:02;;;;;;;8.40;2.35;;;20.10;99.90;;;;;;5055237;28;20036;-70
2023/08/13 05:27:28;;;;;;;9.00;2.67;;;20.10;99.90;;;;;;5054917;28;20632;-76
2023/08/13 05:29:53;;;;;;;6.60;2.17;;;20.10;99.90;;;;;;5055071;28;20025;-70
2023/08/13 05:32:19;;;;;;;5.25;2.15;;;20.10;99.90;;;;;;5055068;28;20527;-70
2023/08/13 05:34:45;;;;;;;10.45;2.63;;;20.20;99.90;;;;;;5055149;28;20533;-70
2023/08/13 05:37:10;;;;;;;9.82;2.38;;;20.20;99.90;;;;;;5055093;28;20017;-70
2023/08/13 05:39:36;;;;;;;10.48;2.33;;;20.20;99.90;;;;;;5053591;28;20509;-69
2023/08/13 05:42:01;;;;;;;7.13;2.30;;;20.20;99.90;;;;;;5054878;28;20064;-79
2023/08/13 05:44:27;;;;;;;9.93;2.63;;;20.20;99.90;;;;;;5054891;28;20025;-80
2023/08/13 05:46:52;;;;;;;10.68;2.00;;;20.30;99.90;;;;;;5054967;28;20025;-80
2023/08/13 05:49:18;;;;;;;11.70;2.97;;;20.20;99.90;;;;;;5053146;28;20040;-80
2023/08/13 05:51:44;;;;;;;9.07;2.47;;;20.30;99.90;;;;;;5054854;28;20021;-81
2023/08/13 05:54:10;;;;;;;8.25;2.45;;;20.30;99.90;;;;;;5054153;28;20035;-80
2023/08/13 05:56:37;;;;;;;5.70;1.55;;;20.30;99.90;;;;;;5054592;28;20025;-70
2023/08/13 05:59:03;;;;;;;7.82;2.58;;;20.30;99.90;;;;;;5054426;28;20106;-72
2023/08/13 06:01:28;;;;;;;11.50;2.40;;;20.30;99.90;;;;;;5054586;28;20490;-74
2023/08/13 06:03:54;;;;;;;6.07;1.98;;;20.30;99.90;;;;;;5054558;28;20104;-74
2023/08/13 06:06:21;;;;;;;7.15;2.40;;;20.40;99.90;;;;;;5054341;28;20420;-70
2023/08/13 06:08:48;;;;;;;6.32;2.30;;;20.30;99.90;;;;;;5054212;28;20025;-70
2023/08/13 06:11:13;;;;;;;9.25;2.45;;;20.40;99.90;;;;;;5054418;28;20025;-72
2023/08/13 06:13:39;;;;;;;9.73;2.33;;;20.30;99.90;;;;;;5054314;28;20381;-69
2023/08/13 06:16:06;;;;;;;12.18;2.58;;;20.40;99.90;;;;;;5054322;28;20021;-69
2023/08/13 06:18:32;;;;;;;8.13;2.65;;;20.30;99.90;;;;;;5054206;28;20393;-69
2023/08/13 06:20:58;;;;;;;8.88;2.08;;;20.40;99.90;;;;;;5054052;28;20382;-71
2023/08/13 06:23:23;;;;;;;8.98;2.58;;;20.40;99.90;;;;;;5052469;28;20025;-72
2023/08/13 06:25:49;;;;;;;7.70;2.38;;;20.40;99.90;;;;;;5053954;28;20021;-69
2023/08/13 06:28:14;;;;;;;7.45;1.95;;;20.40;99.90;;;;;;5054320;28;20025;-69
2023/08/13 06:30:43;;;;;;;7.78;2.45;;;20.50;99.90;;;;;;5053937;28;20041;-69
2023/08/13 06:33:09;;;;;;;7.43;2.17;;;20.50;99.90;;;;;;5054017;28;20425;-69
2023/08/13 06:35:34;;;;;;;8.57;2.03;;;20.50;99.90;;;;;;5053854;28;20474;-70
2023/08/13 06:38:00;;;;;;;8.65;2.65;;;20.40;99.90;;;;;;5053593;28;20056;-70
2023/08/13 06:40:25;;;;;;;11.02;2.40;;;20.50;99.90;;;;;;5053569;28;20363;-69
2023/08/13 06:42:51;;;;;;;10.18;2.53;;;20.40;99.90;;;;;;5053800;28;20025;-71
2023/08/13 06:45:17;;;;;;;8.98;2.40;;;20.50;99.90;;;;;;5053338;28;20043;-70
2023/08/13 06:47:42;;;;;;;9.15;2.47;;;20.50;99.90;;;;;;5053587;28;20067;-69
2023/08/13 06:50:08;;;;;;;8.07;1.98;;;20.50;99.90;;;;;;5053452;28;20485;-70
2023/08/13 06:52:34;;;;;;;9.63;2.40;;;20.50;99.90;;;;;;5053220;28;20103;-70
2023/08/13 06:54:59;;;;;;;6.82;2.08;;;20.60;99.90;;;;;;5053624;28;20124;-71
2023/08/13 06:57:25;;;;;;;7.38;2.17;;;20.60;99.90;;;;;;5053387;28;20032;-71
2023/08/13 06:59:51;;;;;;;6.25;2.15;;;20.60;99.90;;;;;;5053545;28;20465;-70
2023/08/13 07:02:16;;;;;;;5.18;1.88;;;20.60;99.90;;;;;;5052166;28;20056;-70
2023/08/13 07:04:42;;;;;;;9.32;2.40;;;20.70;99.90;;;;;;5053406;28;20489;-70
2023/08/13 07:07:07;;;;;;;8.85;2.45;;;20.60;99.90;;;;;;5053030;28;20021;-70
2023/08/13 07:09:33;;;;;;;6.55;1.95;;;20.70;99.90;;;;;;5053298;28;20143;-73
2023/08/13 07:11:59;;;;;;;6.82;2.42;;;20.70;99.90;;;;;;5052895;28;20029;-70
2023/08/13 07:14:25;;;;;;;10.10;2.53;;;20.70;99.90;;;;;;5053379;28;20021;-70
2023/08/13 07:16:50;;;;;;;6.85;2.10;;;20.70;99.90;;;;;;5053325;28;20034;-71
2023/08/13 07:19:16;;;;;;;7.22;2.58;;;20.80;99.90;;;;;;5053131;28;20390;-70
2023/08/13 07:21:41;;;;;;;6.63;2.10;;;20.70;99.90;;;;;;5052776;28;20466;-70
2023/08/13 07:24:07;;;;;;;10.15;2.67;;;20.70;99.90;;;;;;5053328;28;20025;-70
2023/08/13 07:26:34;;;;;;;9.02;2.25;;;20.80;99.90;;;;;;5053069;28;20454;-73
2023/08/13 07:28:59;;;;;;;10.13;2.40;;;20.80;99.90;;;;;;5053208;28;20036;-71
2023/08/13 07:31:25;;;;;;;5.82;2.08;;;20.80;99.90;;;;;;5052985;28;20108;-71
2023/08/13 07:33:52;;;;;;;6.50;2.15;;;20.80;99.90;;;;;;5053019;28;20028;-70
2023/08/13 07:36:17;;;;;;;5.93;2.15;;;20.80;99.90;;;;;;5052676;28;20029;-70
2023/08/13 07:38:43;;;;;;;6.82;1.85;;;20.80;99.90;;;;;;5052869;28;20062;-72
2023/08/13 07:41:09;;;;;;;7.47;1.95;;;20.90;99.90;;;;;;5052986;28;20085;-70
2023/08/13 07:43:34;;;;;;;7.22;2.00;;;20.90;99.90;;;;;;5052806;28;20359;-70
2023/08/13 07:46:00;;;;;;;9.27;2.50;;;20.90;99.90;;;;;;5053089;28;20032;-71
2023/08/13 07:48:26;;;;;;;7.40;2.20;;;20.90;99.90;;;;;;5051526;28;20025;-70
2023/08/13 07:50:52;;;;;;;10.73;2.60;;;20.90;99.90;;;;;;5052543;28;20032;-75
2023/08/13 07:53:18;;;;;;;9.60;2.40;;;20.90;99.90;;;;;;5052478;28;20399;-70
2023/08/13 07:55:46;;;;;;;8.20;2.40;;;21.00;99.90;;;;;;5051727;28;20397;-70
2023/08/13 07:58:14;;;;;;;7.97;2.28;;;21.00;99.90;;;;;;5052635;28;20482;-71
2023/08/13 08:00:39;;;;;;;8.40;2.40;;;21.00;99.90;;;;;;5052749;28;20044;-72
2023/08/13 08:03:05;;;;;;;8.02;2.65;;;21.00;99.90;;;;;;5055815;28;20017;-70
2023/08/13 08:05:31;;;;;;;8.15;2.28;;;21.00;99.90;;;;;;5056365;28;20029;-70
2023/08/13 08:07:56;;;;;;;8.85;2.65;;;21.10;99.90;;;;;;5055428;28;20071;-70
2023/08/13 08:10:23;;;;;;;7.15;2.00;;;21.10;99.90;;;;;;5056631;28;20025;-70
2023/08/13 08:12:49;;;;;;;5.25;1.77;;;21.10;99.90;;;;;;5055206;28;20024;-69
2023/08/13 08:15:15;;;;;;;7.00;2.08;;;21.10;99.90;;;;;;5055273;28;20021;-70
2023/08/13 08:17:40;;;;;;;9.43;2.20;;;21.10;99.90;;;;;;5056344;28;20025;-70
2023/08/13 08:20:07;;;;;;;5.88;2.05;;;21.10;99.90;;;;;;5055718;28;20025;-69
2023/08/13 08:22:33;;;;;;;6.60;2.10;;;21.20;99.90;;;;;;5046823;28;20096;-70
2023/08/13 08:24:59;;;;;;;7.63;1.55;;;21.20;99.90;;;;;;5074022;28;20166;-70
2023/08/13 08:27:24;;;;;;;7.35;1.98;;;21.20;99.90;;;;;;5069497;28;20017;-70
2023/08/13 08:29:50;;;;;;;8.00;2.28;;;21.20;99.90;;;;;;5055796;28;20598;-70
2023/08/13 08:32:15;;;;;;;7.90;2.22;;;21.20;99.90;;;;;;5054309;28;20474;-69
2023/08/13 08:34:41;;;;;;;6.50;2.05;;;21.30;99.90;;;;;;5055713;28;20029;-70
2023/08/13 08:37:10;;;;;;;5.97;1.83;;;21.30;99.90;;;;;;5056202;28;20511;-71
2023/08/13 08:39:35;;;;;;;8.90;2.63;;;21.30;99.90;;;;;;5056031;28;20037;-74
2023/08/13 08:42:01;;;;;;;9.52;2.55;;;21.30;99.90;;;;;;5056143;28;20173;-71
2023/08/13 08:44:30;;;;;;;7.15;2.30;;;21.30;99.90;;;;;;5055815;28;20462;-75
2023/08/13 08:46:57;;;;;;;4.93;2.13;;;21.30;99.90;;;;;;5056029;28;20021;-74
2023/08/13 08:49:24;;;;;;;5.82;1.88;;;21.30;99.90;;;;;;5055488;28;20032;-69
2023/08/13 08:51:50;;;;;;;9.45;2.65;;;21.30;99.90;;;;;;5055613;28;20113;-71
2023/08/13 08:54:17;;;;;;;7.75;2.38;;;21.30;99.90;;;;;;5055861;28;20462;-72
2023/08/13 08:56:43;;;;;;;8.32;2.17;;;21.30;99.90;;;;;;5055857;28;20112;-70
2023/08/13 08:59:09;;;;;;;6.75;1.85;;;21.40;99.90;;;;;;5055574;28;20124;-70
2023/08/13 09:01:35;;;;;;;4.85;1.70;;;21.40;99.90;;;;;;5055747;28;20021;-71
2023/08/13 09:04:01;;;;;;;7.00;1.83;;;21.40;99.90;;;;;;5055193;28;20032;-71
2023/08/13 09:06:59;;;;;;;6.30;1.70;;;21.40;99.90;;;;;;5055712;28;20020;-74
2023/08/13 09:09:26;;;;;;;7.07;2.60;;;21.40;99.90;;;;;;5055409;28;20092;-73
2023/08/13 09:11:53;;;;;;;7.80;2.45;;;21.50;99.90;;;;;;5055325;28;20025;-70
2023/08/13 09:14:20;;;;;;;8.68;2.20;;;21.50;99.90;;;;;;5053898;28;20108;-70
2023/08/13 09:16:47;;;;;;;6.45;1.65;;;21.50;99.90;;;;;;5055151;28;20029;-73
2023/08/13 09:19:13;;;;;;;9.75;2.15;;;21.50;99.90;;;;;;5055004;28;20386;-70
2023/08/13 09:21:40;;;;;;;10.05;2.63;;;21.50;99.90;;;;;;5055319;28;20464;-71
2023/08/13 09:24:07;;;;;;;7.45;2.00;;;21.60;99.90;;;;;;5055297;28;20021;-70
2023/08/13 09:26:33;;;;;;;5.57;2.00;;;21.60;99.90;;;;;;5055230;28;20100;-70
2023/08/13 09:28:59;;;;;;;8.07;2.08;;;21.60;99.90;;;;;;5054986;28;20497;-70
2023/08/13 09:31:25;;;;;;;6.47;1.95;;;21.60;99.80;;;;;;5055193;28;20021;-70
2023/08/13 09:33:52;;;;;;;6.93;2.30;;;21.70;99.80;;;;;;5054757;28;20035;-70
2023/08/13 09:36:18;;;;;;;5.53;1.63;;;21.70;99.80;;;;;;5055257;28;20036;-70
2023/08/13 09:38:43;;;;;;;8.95;2.10;;;21.70;99.80;;;;;;5054837;28;20041;-70
2023/08/13 09:41:13;;;;;;;5.18;2.08;;;21.70;99.90;;;;;;5054944;28;20064;-70
2023/08/13 09:43:41;;;;;;;7.57;2.03;;;21.80;99.90;;;;;;5055002;28;20033;-70
2023/08/13 09:46:08;;;;;;;6.72;2.22;;;21.80;99.80;;;;;;5054570;28;20079;-70
2023/08/13 09:48:34;;;;;;;6.88;2.03;;;21.80;99.70;;;;;;5054814;28;20037;-70
2023/08/13 09:51:02;;;;;;;5.90;2.10;;;21.80;99.70;;;;;;5054724;28;20082;-70
2023/08/13 09:53:29;;;;;;;5.50;1.70;;;21.90;99.60;;;;;;5054752;28;20501;-70
2023/08/13 09:55:57;;;;;;;6.47;1.92;;;21.90;99.60;;;;;;5054450;28;20087;-70
2023/08/13 09:58:23;;;;;;;6.70;2.00;;;21.90;99.60;;;;;;5054840;28;20033;-71
2023/08/13 10:00:49;;;;;;;8.02;2.30;;;21.90;99.80;;;;;;5053750;28;20041;-71
2023/08/13 10:03:19;;;;;;;6.60;1.92;;;21.90;99.40;;;;;;5074142;28;20024;-75
2023/08/13 10:05:45;;;;;;;8.30;2.35;;;22.00;99.50;;;;;;5072881;28;20052;-71
2023/08/13 10:08:12;;;;;;;7.25;2.05;;;22.00;99.40;;;;;;5072211;28;20025;-73
2023/08/13 10:10:38;;;;;;;8.52;2.10;;;22.00;99.30;;;;;;5073651;28;20031;-70
2023/08/13 10:13:04;;;;;;;6.00;2.00;;;22.00;99.30;;;;;;5074106;28;20077;-70
2023/08/13 10:15:32;;;;;;;6.45;1.77;;;22.10;99.30;;;;;;5073491;28;20025;-73
2023/08/13 10:17:58;;;;;;;5.93;1.90;;;22.10;99.20;;;;;;5074130;28;20453;-70
2023/08/13 10:20:25;;;;;;;8.23;2.25;;;22.10;99.20;;;;;;5074254;28;20028;-71
2023/08/13 10:22:53;;;;;;;8.05;2.10;;;22.10;99.20;;;;;;5073721;28;20027;-73
2023/08/13 10:25:45;;;;;;;8.55;2.22;;;22.20;99.20;;;;;;5073466;28;20410;-70
2023/08/13 10:28:27;;;;;;;5.30;1.58;;;22.20;99.10;;;;;;5071049;28;20424;-70
2023/08/13 10:31:24;;;;;;;4.88;1.70;;;22.20;99.10;;;;;;5073657;28;20385;-70
2023/08/13 10:34:12;;;;;;;5.35;1.70;;;22.20;99.20;;;;;;5073953;28;20017;-70
2023/08/13 10:36:53;;;;;;;6.60;2.17;;;22.20;99.20;;;;;;5072500;28;20457;-70
2023/08/13 10:39:33;;;;;;;4.57;1.40;;;22.20;99.20;;;;;;5073965;28;20477;-70
2023/08/13 10:41:59;;;;;;;8.15;2.28;;;22.20;99.20;;;;;;5073695;28;20021;-70
2023/08/13 10:44:29;;;;;;;6.22;2.10;;;22.30;99.20;;;;;;5073853;28;20421;-70
2023/08/13 10:46:56;;;;;;;5.13;1.88;;;22.30;99.20;;;;;;5073641;28;20028;-73
2023/08/13 10:49:21;;;;;;;6.55;2.00;;;22.30;99.10;;;;;;5051732;28;20025;-71
2023/08/13 10:51:50;;;;;;;6.40;1.63;;;22.40;99.10;;;;;;5053028;28;20040;-71
2023/08/13 10:54:17;;;;;;;7.05;2.20;;;22.40;99.10;;;;;;5060983;28;20044;-71
2023/08/13 10:56:42;;;;;;;7.43;2.17;;;22.40;99.30;;;;;;5072261;28;20496;-71
2023/08/13 10:59:08;;;;;;;5.57;2.05;;;22.40;98.90;;;;;;5071888;28;20040;-70
2023/08/13 11:01:34;;;;;;;6.57;2.15;;;22.40;98.90;;;;;;5072744;28;20031;-70
2023/08/13 11:04:03;;;;;;;6.00;2.30;;;22.40;98.90;;;;;;5073443;28;20032;-70
2023/08/13 11:06:29;;;;;;;6.95;1.85;;;22.50;98.80;;;;;;5071943;28;20016;-70
2023/08/13 11:08:55;;;;;;;6.32;2.50;;;22.50;98.80;;;;;;5073504;28;20031;-71
2023/08/13 11:11:21;;;;;;;6.95;1.77;;;22.50;98.70;;;;;;5073515;28;20091;-70
2023/08/13 11:13:48;;;;;;;6.50;1.65;;;22.50;98.80;;;;;;5073231;28;20056;-71
2023/08/13 11:16:14;;;;;;;8.02;1.75;;;22.50;98.60;;;;;;5065447;28;20183;-71
2023/08/13 11:18:39;;;;;;;5.28;2.08;;;22.50;98.50;;;;;;5063849;28;20040;-76
2023/08/13 11:21:05;;;;;;;6.30;1.73;;;22.60;98.50;;;;;;5072308;28;20013;-74
2023/08/13 11:23:31;;;;;;;7.22;1.98;;;22.60;98.50;;;;;;5055496;28;20086;-76
2023/08/13 11:25:57;;;;;;;6.65;2.05;;;22.60;98.40;;;;;;5062269;28;20029;-73
2023/08/13 11:28:27;;;;;;;6.45;2.35;;;22.60;98.40;;;;;;5051633;28;20057;-73
2023/08/13 11:30:56;;;;;;;8.05;2.42;;;22.60;98.30;;;;;;5062149;28;20496;-71
2023/08/13 11:33:22;;;;;;;6.82;2.20;;;22.60;98.30;;;;;;5052163;28;20033;-72
2023/08/13 11:35:48;;;;;;;5.53;1.90;;;22.60;98.30;;;;;;5051241;28;20043;-75
2023/08/13 11:38:14;;;;;;;10.30;1.92;;;22.70;98.20;;;;;;5051462;28;20017;-71
2023/08/13 11:40:40;;;;;;;6.72;1.50;;;22.70;98.20;;;;;;5050837;28;20017;-72
2023/08/13 11:43:09;;;;;;;7.55;1.88;;;22.70;98.10;;;;;;5050753;28;20390;-78
2023/08/13 11:45:35;;;;;;;6.43;1.67;;;22.80;98.10;;;;;;5052590;28;20459;-71
2023/08/13 11:48:13;;;;;;;6.22;1.65;;;22.80;98.00;;;;;;5052710;28;20025;-74
2023/08/13 11:50:40;;;;;;;4.93;1.98;;;22.80;98.00;;;;;;5052714;28;20498;-85
2023/08/13 11:53:12;;;;;;;5.22;1.80;;;22.80;98.00;;;;;;5051586;28;20021;-72
2023/08/13 11:55:39;;;;;;;;;;;22.80;97.90;;;;;;5053512;28;20112;-78
2023/08/13 11:58:05;;;;;;;5.78;1.65;;;22.80;97.80;;;;;;5052708;28;19916;-71
2023/08/13 12:00:31;;;;;;;5.05;1.33;;;22.80;97.80;;;;;;5053026;28;20033;-71
2023/08/13 12:02:58;;;;;;;6.25;1.77;;;22.80;97.80;;;;;;5050309;28;20021;-81
2023/08/13 12:05:31;;;;;;;5.70;1.90;;;22.80;97.80;;;;;;5052350;28;20080;-85
2023/08/13 12:08:04;;;;;;;7.43;2.35;;;22.80;97.80;;;;;;5041984;28;20036;-84
2023/08/13 12:10:31;;;;;;;6.00;1.55;;;22.80;97.70;;;;;;5052325;28;20025;-82
2023/08/13 12:12:57;;;;;;;5.40;1.90;;;22.90;97.70;;;;;;5052198;28;20029;-71
2023/08/13 12:15:25;;;;;;;4.40;1.60;;;22.90;97.70;;;;;;5052736;28;20378;-71
2023/08/13 12:17:55;;;;;;;4.32;1.80;;;22.90;97.70;;;;;;5052335;28;20017;-73
2023/08/13 12:20:22;;;;;;;4.72;1.33;;;22.90;97.60;;;;;;5052472;28;20036;-73
2023/08/13 12:22:48;;;;;;;4.95;1.63;;;23.00;97.60;;;;;;5052620;28;20163;-81
2023/08/13 12:25:14;;;;;;;7.10;1.95;;;23.00;97.60;;;;;;5051220;28;20029;-71
2023/08/13 12:27:40;;;;;;;5.63;1.52;;;23.00;97.70;;;;;;5052506;28;20044;-71
2023/08/13 12:30:06;;;;;;;7.65;1.95;;;23.00;97.80;;;;;;5051789;28;20104;-71
2023/08/13 12:32:32;;;;;;;4.95;1.35;;;23.10;98.00;;;;;;5040761;28;20029;-71
2023/08/13 12:34:58;;;;;;;5.13;1.67;;;23.10;98.30;;;;;;5052592;28;20070;-74
2023/08/13 12:37:24;;;;;;;6.20;1.45;;;23.10;98.30;;;;;;5034384;28;20088;-72
2023/08/13 12:39:50;;;;;;;3.42;1.40;;;23.10;98.40;;;;;;5044134;28;20494;-73
2023/08/13 12:42:15;;;;;;;5.28;1.23;;;23.10;98.40;;;;;;5067644;28;20035;-70
2023/08/13 12:44:41;;;;;;;5.18;1.52;;;23.10;98.50;;;;;;5069380;28;20070;-73